createdAt,value
2023-03-27T00:01:17.028Z,10.40
2023-03-27T00:03:43.577Z,10.65
2023-03-27T00:06:17.066Z,13.20
2023-03-27T00:08:44.949Z,15.32
2023-03-27T00:11:12.020Z,16.90
2023-03-27T00:13:48.895Z,13.73
2023-03-27T00:16:16.631Z,10.55
2023-03-27T00:18:44.779Z,10.48
2023-03-27T00:21:11.168Z,10.63
2023-03-27T00:23:37.566Z,10.00
2023-03-27T00:26:04.296Z,15.23
2023-03-27T00:28:31.202Z,9.57
2023-03-27T00:30:58.378Z,13.68
2023-03-27T00:33:25.877Z,12.30
2023-03-27T00:35:53.222Z,9.63
2023-03-27T00:38:19.719Z,9.38
2023-03-27T00:40:47.108Z,10.88
2023-03-27T00:43:24.498Z,7.25
2023-03-27T00:45:55.356Z,14.52
2023-03-27T00:48:24.699Z,8.73
2023-03-27T00:50:52.802Z,10.18
2023-03-27T00:53:26.385Z,10.25
2023-03-27T00:55:55.877Z,10.20
2023-03-27T00:58:32.321Z,11.23
2023-03-27T01:00:59.086Z,8.90
2023-03-27T01:03:30.942Z,8.52
2023-03-27T01:06:00.939Z,9.65
2023-03-27T01:08:33.696Z,10.60
2023-03-27T01:11:25.988Z,14.20
2023-03-27T01:14:11.064Z,19.77
2023-03-27T01:16:59.639Z,8.32
2023-03-27T01:19:53.437Z,13.05
2023-03-27T01:22:41.889Z,12.98
2023-03-27T01:25:31.671Z,9.00
2023-03-27T01:28:35.734Z,20.42
2023-03-27T01:31:32.348Z,13.30
2023-03-27T01:34:07.818Z,13.20
2023-03-27T01:37:11.139Z,9.82
2023-03-27T01:39:56.420Z,16.85
2023-03-27T01:42:42.458Z,10.10
2023-03-27T01:45:17.470Z,18.67
2023-03-27T01:48:16.897Z,11.65
2023-03-27T01:50:55.163Z,15.25
2023-03-27T01:53:31.539Z,21.50
2023-03-27T01:56:05.363Z,12.60
2023-03-27T01:58:37.921Z,11.50
2023-03-27T02:01:06.198Z,12.93
2023-03-27T02:03:41.647Z,11.40
2023-03-27T02:09:11.831Z,12.02
2023-03-27T02:11:44.347Z,14.93
2023-03-27T02:14:17.146Z,10.80
2023-03-27T02:16:48.588Z,12.70
2023-03-27T02:19:23.215Z,15.02
2023-03-27T02:21:49.655Z,22.08
2023-03-27T02:24:19.126Z,17.63
2023-03-27T02:26:50.338Z,17.08
2023-03-27T02:29:22.560Z,6.85
2023-03-27T02:32:12.618Z,8.15
2023-03-27T02:35:03.144Z,13.95
2023-03-27T02:38:03.055Z,11.00
2023-03-27T02:40:41.057Z,15.70
2023-03-27T02:43:14.572Z,11.02
2023-03-27T02:45:45.893Z,9.23
2023-03-27T02:48:22.636Z,14.02
2023-03-27T02:51:25.639Z,9.90
2023-03-27T02:54:05.233Z,14.57
2023-03-27T02:56:38.360Z,11.57
2023-03-27T02:59:10.102Z,13.27
2023-03-27T03:01:38.307Z,8.82
2023-03-27T03:04:16.565Z,14.52
2023-03-27T03:06:43.793Z,15.75
2023-03-27T03:09:10.869Z,12.02
2023-03-27T03:11:44.629Z,13.57
2023-03-27T03:14:11.002Z,13.68
2023-03-27T03:16:37.451Z,11.10
2023-03-27T03:19:03.939Z,11.80
2023-03-27T03:21:31.882Z,11.63
2023-03-27T03:23:59.164Z,12.10
2023-03-27T03:26:26.950Z,9.10
2023-03-27T03:29:00.572Z,14.13
2023-03-27T03:31:42.663Z,11.05
2023-03-27T03:34:12.838Z,12.40
2023-03-27T03:36:41.802Z,14.10
2023-03-27T03:39:09.051Z,11.48
2023-03-27T03:41:35.892Z,9.82
2023-03-27T03:44:02.221Z,14.90
2023-03-27T03:46:28.664Z,15.27
2023-03-27T03:48:55.898Z,10.98
2023-03-27T03:51:22.966Z,10.88
2023-03-27T03:53:49.347Z,11.90
2023-03-27T03:56:15.715Z,9.80
2023-03-27T03:58:42.705Z,16.77
2023-03-27T04:01:09.220Z,14.70
2023-03-27T04:03:36.172Z,13.38
2023-03-27T04:06:05.298Z,12.52
2023-03-27T04:08:32.922Z,16.70
2023-03-27T04:10:59.349Z,16.70
2023-03-27T04:13:26.478Z,8.38
2023-03-27T04:15:53.081Z,12.20
2023-03-27T04:18:19.858Z,10.13
2023-03-27T04:20:49.850Z,9.32
2023-03-27T04:23:19.911Z,12.48
2023-03-27T04:25:46.997Z,13.38
2023-03-27T04:28:17.184Z,11.15
2023-03-27T04:30:45.026Z,14.60
2023-03-27T04:33:18.388Z,10.80
2023-03-27T04:35:45.883Z,17.50
2023-03-27T04:38:33.638Z,10.95
2023-03-27T04:41:00.139Z,15.20
2023-03-27T04:43:26.507Z,10.13
2023-03-27T04:45:53.435Z,14.05
2023-03-27T04:48:20.928Z,13.43
2023-03-27T04:50:50.883Z,11.18
2023-03-27T04:53:20.329Z,12.00
2023-03-27T04:55:51.062Z,17.85
2023-03-27T04:58:18.826Z,10.05
2023-03-27T05:00:50.551Z,15.80
2023-03-27T05:03:20.306Z,11.73
2023-03-27T05:05:47.597Z,11.40
2023-03-27T05:08:13.925Z,13.13
2023-03-27T05:10:40.295Z,14.57
2023-03-27T05:13:06.732Z,13.27
2023-03-27T05:15:33.584Z,11.88
2023-03-27T05:18:00.520Z,13.95
2023-03-27T05:20:27.365Z,8.15
2023-03-27T05:22:56.023Z,13.05
2023-03-27T05:25:23.264Z,15.88
2023-03-27T05:27:51.256Z,7.60
2023-03-27T05:30:21.017Z,19.00
2023-03-27T05:32:49.276Z,9.18
2023-03-27T05:35:18.079Z,11.35
2023-03-27T05:37:47.517Z,14.30
2023-03-27T05:40:15.686Z,7.47
2023-03-27T05:42:46.213Z,10.00
2023-03-27T05:45:13.715Z,11.35
2023-03-27T05:47:51.898Z,12.68
2023-03-27T05:50:20.064Z,12.07
2023-03-27T05:52:46.566Z,11.43
2023-03-27T05:55:14.842Z,7.72
2023-03-27T05:57:41.952Z,14.40
2023-03-27T06:00:13.839Z,13.10
2023-03-27T06:02:43.310Z,8.18
2023-03-27T06:05:14.110Z,10.23
2023-03-27T06:07:43.304Z,12.32
2023-03-27T06:10:14.103Z,17.73
2023-03-27T06:12:42.014Z,8.25
2023-03-27T06:15:09.700Z,15.18
2023-03-27T06:17:38.199Z,10.40
2023-03-27T06:20:15.162Z,6.40
2023-03-27T06:22:55.545Z,12.00
2023-03-27T06:25:23.934Z,18.92
2023-03-27T06:27:51.411Z,14.93
2023-03-27T06:30:20.398Z,9.05
2023-03-27T06:32:49.515Z,8.65
2023-03-27T06:35:17.273Z,11.23
2023-03-27T06:37:50.705Z,11.68
2023-03-27T06:40:22.786Z,12.55
2023-03-27T06:45:31.370Z,12.38
2023-03-27T06:48:16.888Z,9.05
2023-03-27T06:50:47.709Z,10.75
2023-03-27T06:53:26.387Z,8.95
2023-03-27T06:55:54.358Z,12.48
2023-03-27T06:58:21.762Z,12.13
2023-03-27T07:00:49.614Z,11.05
2023-03-27T07:03:17.736Z,9.65
2023-03-27T07:05:44.357Z,9.90
2023-03-27T07:10:45.772Z,12.93
2023-03-27T07:13:13.510Z,11.50
2023-03-27T07:15:39.996Z,9.90
2023-03-27T07:18:09.158Z,13.02
2023-03-27T07:20:36.054Z,7.75
2023-03-27T07:23:03.404Z,10.25
2023-03-27T07:25:37.055Z,4.97
2023-03-27T07:28:06.354Z,7.65
2023-03-27T07:30:33.937Z,8.73
2023-03-27T07:33:00.439Z,7.35
2023-03-27T07:35:27.034Z,4.47
2023-03-27T07:37:54.422Z,9.88
2023-03-27T07:40:33.359Z,8.05
2023-03-27T07:43:09.069Z,11.20
2023-03-27T07:45:36.242Z,5.70
2023-03-27T07:48:15.975Z,5.07
2023-03-27T07:50:43.021Z,7.38
2023-03-27T07:53:09.514Z,8.63
2023-03-27T07:55:58.923Z,6.47
2023-03-27T07:58:25.420Z,6.80
2023-03-27T08:00:52.958Z,8.82
2023-03-27T08:03:20.943Z,9.45
2023-03-27T08:05:56.131Z,7.07
2023-03-27T08:10:50.775Z,6.85
2023-03-27T08:13:17.520Z,7.65
2023-03-27T08:15:43.933Z,5.88
2023-03-27T08:18:11.540Z,10.45
2023-03-27T08:20:38.690Z,6.93
2023-03-27T08:23:05.072Z,5.50
2023-03-27T08:25:34.820Z,11.70
2023-03-27T08:28:02.688Z,5.18
2023-03-27T08:30:29.537Z,6.53
2023-03-27T08:32:56.862Z,8.50
2023-03-27T08:35:23.298Z,7.43
2023-03-27T08:37:49.776Z,11.68
2023-03-27T08:40:25.929Z,5.50
2023-03-27T08:42:57.018Z,8.38
2023-03-27T08:45:30.211Z,6.85
2023-03-27T08:48:04.735Z,5.25
2023-03-27T08:50:36.083Z,7.72
2023-03-27T08:53:07.183Z,6.28
2023-03-27T08:55:40.424Z,8.23
2023-03-27T08:58:21.207Z,7.30
2023-03-27T09:00:57.445Z,7.13
2023-03-27T09:03:32.457Z,5.05
2023-03-27T09:08:49.856Z,7.80
2023-03-27T09:11:37.190Z,6.07
2023-03-27T09:14:14.880Z,9.70
2023-03-27T09:16:51.544Z,7.63
2023-03-27T09:19:45.833Z,11.65
2023-03-27T09:22:18.658Z,12.20
2023-03-27T09:24:48.169Z,14.23
2023-03-27T09:27:21.940Z,10.48
2023-03-27T09:30:18.510Z,6.07
2023-03-27T09:32:48.460Z,6.05
2023-03-27T09:35:16.205Z,7.40
2023-03-27T09:37:42.793Z,20.02
2023-03-27T09:40:23.484Z,6.00
2023-03-27T09:42:53.483Z,7.07
2023-03-27T09:45:20.982Z,10.50
2023-03-27T09:48:01.314Z,11.30
2023-03-27T09:50:33.659Z,7.63
2023-03-27T09:53:14.206Z,9.25
2023-03-27T09:56:03.313Z,8.45
2023-03-27T09:58:48.825Z,5.97
2023-03-27T10:01:19.855Z,4.90
2023-03-27T10:03:53.014Z,5.22
2023-03-27T10:06:29.394Z,9.00
2023-03-27T10:09:00.931Z,11.68
2023-03-27T10:11:32.579Z,7.63
2023-03-27T10:14:01.549Z,9.00
2023-03-27T10:16:29.069Z,8.35
2023-03-27T10:18:58.041Z,6.53
2023-03-27T10:21:27.537Z,7.40
2023-03-27T10:24:04.787Z,9.30
2023-03-27T10:26:33.814Z,9.13
2023-03-27T10:29:21.895Z,8.35
2023-03-27T10:31:51.066Z,8.38
2023-03-27T10:34:50.537Z,6.43
2023-03-27T10:37:30.860Z,8.25
2023-03-27T10:40:02.162Z,4.53
2023-03-27T10:42:32.456Z,8.77
2023-03-27T10:44:59.575Z,5.75
2023-03-27T10:47:35.012Z,5.40
2023-03-27T10:50:08.306Z,6.13
2023-03-27T10:52:48.469Z,6.32
2023-03-27T10:55:33.046Z,8.18
2023-03-27T10:58:05.421Z,11.17
2023-03-27T11:00:43.553Z,6.68
2023-03-27T11:03:21.826Z,6.57
2023-03-27T11:05:53.618Z,5.05
2023-03-27T11:08:38.499Z,5.95
2023-03-27T11:11:20.710Z,9.73
2023-03-27T11:13:48.354Z,5.63
2023-03-27T11:16:29.568Z,5.65
2023-03-27T11:19:11.372Z,5.80
2023-03-27T11:21:52.997Z,4.97
2023-03-27T11:24:42.443Z,4.93
2023-03-27T11:27:19.809Z,4.95
2023-03-27T11:29:57.125Z,3.17
2023-03-27T11:32:39.896Z,3.30
2023-03-27T11:35:17.620Z,2.97
2023-03-27T11:37:43.906Z,2.72
2023-03-27T11:40:20.203Z,2.55
2023-03-27T11:42:47.572Z,3.50
2023-03-27T11:45:17.296Z,3.72
2023-03-27T11:48:09.469Z,5.45
2023-03-27T11:50:43.209Z,3.65
2023-03-27T11:53:41.970Z,4.00
2023-03-27T11:56:20.359Z,4.03
2023-03-27T11:59:08.542Z,2.35
2023-03-27T12:01:47.429Z,1.73
2023-03-27T12:04:40.648Z,2.10
2023-03-27T12:07:37.143Z,2.78
2023-03-27T12:10:35.274Z,2.72
2023-03-27T12:13:09.018Z,1.85
2023-03-27T12:15:47.446Z,2.92
2023-03-27T12:18:36.133Z,3.05
2023-03-27T12:21:29.342Z,3.35
2023-03-27T12:24:32.665Z,4.35
2023-03-27T12:27:37.452Z,4.95
2023-03-27T12:30:24.121Z,5.43
2023-03-27T12:33:00.437Z,2.38
2023-03-27T12:35:32.013Z,1.08
2023-03-27T12:38:42.016Z,1.73
2023-03-27T12:41:08.652Z,3.25
2023-03-27T12:43:41.017Z,0.90
2023-03-27T12:46:22.875Z,0.55
2023-03-27T12:49:13.650Z,2.08
2023-03-27T12:52:07.405Z,2.50
2023-03-27T12:54:35.511Z,0.82
2023-03-27T12:57:10.831Z,1.75
2023-03-27T12:59:49.653Z,1.55
2023-03-27T13:02:42.965Z,2.47
2023-03-27T13:05:35.549Z,1.65
2023-03-27T13:08:21.098Z,2.40
2023-03-27T13:13:27.759Z,2.50
2023-03-27T13:16:26.473Z,3.45
2023-03-27T13:18:55.922Z,2.38
2023-03-27T13:21:59.840Z,5.05
2023-03-27T13:24:54.877Z,5.45
2023-03-27T13:27:42.328Z,3.67
2023-03-27T13:30:46.619Z,3.05
2023-03-27T13:33:31.448Z,2.97
2023-03-27T13:35:58.041Z,3.13
2023-03-27T13:38:44.979Z,5.07
2023-03-27T13:41:45.599Z,6.05
2023-03-27T13:44:30.187Z,4.32
2023-03-27T13:47:09.684Z,3.03
2023-03-27T13:49:59.425Z,3.45
2023-03-27T13:52:35.621Z,3.83
2023-03-27T13:55:17.214Z,5.35
2023-03-27T13:58:10.793Z,4.50
2023-03-27T14:01:09.379Z,8.10
2023-03-27T14:03:57.633Z,4.00
2023-03-27T14:06:39.636Z,5.10
2023-03-27T14:09:24.670Z,3.83
2023-03-27T14:12:35.376Z,6.30
2023-03-27T14:15:20.121Z,7.85
2023-03-27T14:18:09.875Z,4.90
2023-03-27T14:20:49.048Z,6.22
2023-03-27T14:24:03.197Z,4.55
2023-03-27T14:26:31.510Z,5.25
2023-03-27T14:29:02.110Z,4.78
2023-03-27T14:31:35.335Z,5.18
2023-03-27T14:34:14.680Z,6.53
2023-03-27T14:36:46.732Z,4.32
2023-03-27T14:39:14.690Z,5.18
2023-03-27T14:41:57.004Z,3.92
2023-03-27T14:44:25.046Z,2.05
2023-03-27T14:46:58.531Z,2.78
2023-03-27T14:49:31.599Z,2.35
2023-03-27T14:52:01.254Z,1.85
2023-03-27T14:54:28.857Z,1.55
2023-03-27T14:57:00.001Z,2.05
2023-03-27T14:59:33.683Z,2.30
2023-03-27T15:02:02.949Z,3.88
2023-03-27T15:04:32.020Z,3.85
2023-03-27T15:07:19.375Z,3.88
2023-03-27T15:09:59.130Z,2.40
2023-03-27T15:12:25.671Z,3.55
2023-03-27T15:14:53.009Z,2.40
2023-03-27T15:17:20.069Z,7.60
2023-03-27T15:19:54.148Z,2.85
2023-03-27T15:22:31.395Z,5.35
2023-03-27T15:25:10.428Z,5.22
2023-03-27T15:27:48.322Z,4.82
2023-03-27T15:30:33.268Z,4.78
2023-03-27T15:33:04.528Z,6.15
2023-03-27T15:35:37.423Z,3.15
2023-03-27T15:38:06.332Z,5.90
2023-03-27T15:40:36.742Z,5.78
2023-03-27T15:43:06.734Z,2.50
2023-03-27T15:45:42.000Z,2.60
2023-03-27T15:48:23.871Z,7.85
2023-03-27T15:51:00.468Z,4.75
2023-03-27T15:53:46.792Z,4.57
2023-03-27T15:56:13.061Z,4.30
2023-03-27T15:58:51.805Z,4.65
2023-03-27T16:01:39.642Z,2.95
2023-03-27T16:04:07.825Z,3.67
2023-03-27T16:06:40.676Z,7.18
2023-03-27T16:09:29.102Z,4.55
2023-03-27T16:11:57.760Z,3.05
2023-03-27T16:14:27.901Z,4.13
2023-03-27T16:17:09.758Z,6.22
2023-03-27T16:19:56.719Z,4.93
2023-03-27T16:22:37.236Z,5.32
2023-03-27T16:25:07.035Z,4.63
2023-03-27T16:27:39.365Z,10.25
2023-03-27T16:30:08.417Z,4.53
2023-03-27T16:32:35.661Z,6.72
2023-03-27T16:35:02.217Z,10.07
2023-03-27T16:37:28.629Z,8.88
2023-03-27T16:39:55.270Z,6.80
2023-03-27T16:42:26.204Z,8.07
2023-03-27T16:44:53.838Z,8.38
2023-03-27T16:47:20.535Z,5.18
2023-03-27T16:49:56.289Z,5.68
2023-03-27T16:52:33.597Z,7.93
2023-03-27T16:54:59.927Z,6.00
2023-03-27T16:57:26.314Z,5.75
2023-03-27T16:59:52.731Z,2.13
2023-03-27T17:02:19.122Z,6.18
2023-03-27T17:04:45.677Z,3.97
2023-03-27T17:07:12.263Z,4.03
2023-03-27T17:09:38.651Z,4.97
2023-03-27T17:12:05.301Z,9.98
2023-03-27T17:14:31.797Z,6.80
2023-03-27T17:16:58.232Z,3.05
2023-03-27T17:19:24.721Z,3.40
2023-03-27T17:21:51.076Z,4.80
2023-03-27T17:24:19.785Z,4.60
2023-03-27T17:26:46.382Z,6.68
2023-03-27T17:29:12.795Z,5.82
2023-03-27T17:31:39.415Z,6.55
2023-03-27T17:34:06.439Z,5.30
2023-03-27T17:36:42.881Z,6.82
2023-03-27T17:39:13.886Z,6.68
2023-03-27T17:41:40.448Z,7.10
2023-03-27T17:44:07.930Z,6.22
2023-03-27T17:46:34.501Z,4.65
2023-03-27T17:49:01.271Z,8.05
2023-03-27T17:51:27.595Z,6.70
2023-03-27T17:53:53.954Z,17.20
2023-03-27T17:56:20.387Z,7.18
2023-03-27T17:58:49.083Z,4.63
2023-03-27T18:01:20.348Z,7.00
2023-03-27T18:03:47.479Z,7.35
2023-03-27T18:06:17.154Z,6.07
2023-03-27T18:08:44.552Z,10.23
2023-03-27T18:11:12.941Z,6.82
2023-03-27T18:13:39.499Z,7.25
2023-03-27T18:16:10.231Z,8.60
2023-03-27T18:18:38.954Z,4.53
2023-03-27T18:21:06.182Z,7.57
2023-03-27T18:23:34.734Z,6.00
2023-03-27T18:26:05.891Z,9.93
2023-03-27T18:28:32.560Z,6.97
2023-03-27T18:31:08.432Z,10.43
2023-03-27T18:33:35.542Z,6.82
2023-03-27T18:36:02.130Z,6.88
2023-03-27T18:38:29.022Z,7.68
2023-03-27T18:40:56.826Z,5.90
2023-03-27T18:43:24.054Z,8.25
2023-03-27T18:45:58.288Z,5.45
2023-03-27T18:48:25.975Z,4.45
2023-03-27T18:51:04.191Z,6.65
2023-03-27T18:53:31.444Z,4.65
2023-03-27T18:55:58.667Z,6.93
2023-03-27T18:58:27.349Z,6.78
2023-03-27T19:00:57.708Z,4.25
2023-03-27T19:03:26.360Z,8.85
2023-03-27T19:05:53.178Z,5.75
2023-03-27T19:08:21.509Z,6.00
2023-03-27T19:10:48.246Z,8.65
2023-03-27T19:13:14.702Z,8.30
2023-03-27T19:15:41.963Z,6.50
2023-03-27T19:18:08.731Z,9.75
2023-03-27T19:20:35.241Z,5.57
2023-03-27T19:23:01.621Z,5.70
2023-03-27T19:25:28.274Z,7.82
2023-03-27T19:27:54.821Z,6.15
2023-03-27T19:30:21.429Z,5.50
2023-03-27T19:32:47.890Z,6.70
2023-03-27T19:35:14.306Z,5.47
2023-03-27T19:37:41.668Z,4.53
2023-03-27T19:40:09.442Z,6.03
2023-03-27T19:42:36.238Z,5.45
2023-03-27T19:45:02.603Z,6.28
2023-03-27T19:47:29.032Z,5.40
2023-03-27T19:49:55.713Z,5.95
2023-03-27T19:52:22.656Z,9.48
2023-03-27T19:54:49.092Z,8.88
2023-03-27T19:57:15.516Z,6.78
2023-03-27T19:59:41.993Z,7.97
2023-03-27T20:02:11.527Z,6.32
2023-03-27T20:04:38.010Z,9.80
2023-03-27T20:07:06.903Z,6.85
2023-03-27T20:09:34.285Z,8.68
2023-03-27T20:12:01.321Z,5.57
2023-03-27T20:14:27.791Z,6.03
2023-03-27T20:16:54.568Z,6.20
2023-03-27T20:19:22.123Z,9.30
2023-03-27T20:21:48.991Z,5.72
2023-03-27T20:24:17.273Z,5.57
2023-03-27T20:26:47.855Z,7.82
2023-03-27T20:29:17.825Z,9.43
2023-03-27T20:31:44.398Z,8.95
2023-03-27T20:34:11.121Z,8.32
2023-03-27T20:36:38.749Z,6.90
2023-03-27T20:39:07.080Z,10.60
2023-03-27T20:41:39.005Z,10.68
2023-03-27T20:44:16.376Z,7.20
2023-03-27T20:46:51.272Z,10.05
2023-03-27T20:49:40.075Z,8.15
2023-03-27T20:52:12.798Z,7.53
2023-03-27T20:54:39.254Z,5.35
2023-03-27T20:57:06.399Z,8.10
2023-03-27T20:59:32.840Z,9.20
2023-03-27T21:01:59.641Z,8.70
2023-03-27T21:04:28.111Z,8.77
2023-03-27T21:06:55.273Z,11.70
2023-03-27T21:09:22.797Z,11.40
2023-03-27T21:11:49.325Z,12.07
2023-03-27T21:14:16.183Z,8.10
2023-03-27T21:16:43.139Z,7.40
2023-03-27T21:19:10.727Z,5.43
2023-03-27T21:21:37.797Z,12.43
2023-03-27T21:24:04.554Z,10.90
2023-03-27T21:26:30.956Z,12.38
2023-03-27T21:28:57.344Z,7.20
2023-03-27T21:31:23.814Z,6.50
2023-03-27T21:33:50.261Z,11.45
2023-03-27T21:36:16.696Z,7.50
2023-03-27T21:38:43.439Z,13.10
2023-03-27T21:41:14.040Z,9.90
2023-03-27T21:43:40.598Z,10.75
2023-03-27T21:46:07.082Z,8.02
2023-03-27T21:48:33.670Z,10.13
2023-03-27T21:51:05.730Z,10.85
2023-03-27T21:53:32.278Z,8.23
2023-03-27T21:55:58.886Z,8.50
2023-03-27T21:58:25.862Z,6.97
2023-03-27T22:00:54.975Z,7.95
2023-03-27T22:03:21.378Z,8.90
2023-03-27T22:05:57.442Z,5.38
2023-03-27T22:08:36.226Z,9.52
2023-03-27T22:11:02.709Z,7.72
2023-03-27T22:13:29.069Z,6.32
2023-03-27T22:15:56.232Z,8.52
2023-03-27T22:18:23.601Z,8.98
2023-03-27T22:20:49.969Z,10.60
2023-03-27T22:23:16.338Z,8.77
2023-03-27T22:25:42.669Z,7.55
2023-03-27T22:28:09.038Z,12.85
2023-03-27T22:30:35.799Z,10.25
2023-03-27T22:33:02.248Z,9.90
2023-03-27T22:35:28.670Z,10.32
2023-03-27T22:37:55.240Z,8.10
2023-03-27T22:40:21.645Z,9.35
2023-03-27T22:42:47.960Z,12.82
2023-03-27T22:45:14.414Z,7.88
2023-03-27T22:47:41.030Z,8.95
2023-03-27T22:50:08.582Z,9.70
2023-03-27T22:52:34.911Z,11.93
2023-03-27T22:55:01.319Z,8.48
2023-03-27T22:57:27.693Z,9.48
2023-03-27T22:59:54.174Z,6.88
2023-03-27T23:02:21.328Z,7.68
2023-03-27T23:04:47.689Z,10.35
2023-03-27T23:07:14.046Z,12.18
2023-03-27T23:09:40.493Z,8.05
2023-03-27T23:12:06.997Z,12.05
2023-03-27T23:14:33.323Z,10.77
2023-03-27T23:17:00.689Z,7.57
2023-03-27T23:19:27.137Z,7.72
2023-03-27T23:21:53.505Z,8.20
2023-03-27T23:24:20.082Z,9.20
2023-03-27T23:26:46.468Z,10.13
2023-03-27T23:29:12.816Z,8.68
2023-03-27T23:31:39.266Z,6.97
2023-03-27T23:34:05.660Z,7.35
2023-03-27T23:36:32.036Z,10.18
2023-03-27T23:38:58.434Z,7.90
2023-03-27T23:41:24.891Z,9.60
2023-03-27T23:43:51.355Z,8.43
2023-03-27T23:46:17.847Z,8.32
2023-03-27T23:48:44.778Z,7.50
2023-03-27T23:51:13.419Z,11.57
2023-03-27T23:53:40.015Z,9.38
2023-03-27T23:56:06.844Z,9.00
2023-03-27T23:58:33.941Z,10.40
